Time;durP1;ratioP1;P1;durP2;ratioP2;P2;SDS_P1;SDS_P2;PMS_P1;PMS_P2;Temp;Humidity;BMP_temperature;BMP_pressure;BME280_temperature;BME280_humidity;BME280_pressure;Samples;Min_cycle;Max_cycle;Signal;HPM_P1;HPM_P2
2021/11/26 00:00:37;;;;;;;;;1.50;1.50;;;;;21.14;37.13;100603.91;5098997;27;45196;-53
2021/11/26 00:03:03;;;;;;;;;3.75;3.00;;;;;21.13;37.08;100599.59;5097490;27;46464;-52
2021/11/26 00:05:28;;;;;;;;;4.00;3.00;;;;;21.12;36.94;100596.13;5079799;27;45513;-60
2021/11/26 00:07:54;;;;;;;;;2.00;2.00;;;;;21.12;36.70;100600.53;5098209;27;45265;-52
2021/11/26 00:10:19;;;;;;;;;4.00;4.00;;;;;21.10;37.17;100590.09;5098337;27;45224;-56
2021/11/26 00:12:52;;;;;;;;;3.00;2.00;;;;;21.09;36.75;100590.19;5097993;27;45501;-60
2021/11/26 00:15:25;;;;;;;;;2.00;2.00;;;;;21.09;36.79;100588.41;5097894;27;45541;-54
2021/11/26 00:17:54;;;;;;;;;2.50;2.50;;;;;21.08;36.98;100576.16;5098103;27;45279;-52
2021/11/26 00:20:19;;;;;;;;;1.75;1.75;;;;;21.07;36.33;100568.34;5098294;27;45331;-55
2021/11/26 00:22:45;;;;;;;;;2.25;1.75;;;;;21.06;36.78;100574.56;5097817;27;45368;-53
2021/11/26 00:25:11;;;;;;;;;2.50;2.50;;;;;21.04;37.03;100571.16;5098351;27;45428;-55
2021/11/26 00:27:36;;;;;;;;;2.75;1.75;;;;;21.04;37.05;100584.34;5098132;27;45331;-53
2021/11/26 00:30:03;;;;;;;;;2.50;2.50;;;;;21.03;36.61;100580.03;5098143;27;45556;-56
2021/11/26 00:32:29;;;;;;;;;4.50;2.75;;;;;21.00;36.82;100581.88;5097731;27;46321;-51
2021/11/26 00:34:54;;;;;;;;;2.25;2.00;;;;;20.99;36.96;100585.50;5079560;27;45496;-56
2021/11/26 00:37:20;;;;;;;;;2.75;1.00;;;;;20.99;37.03;100582.00;5097797;27;45297;-49
2021/11/26 00:39:45;;;;;;;;;3.00;3.00;;;;;20.97;36.69;100576.84;5098082;27;45417;-61
2021/11/26 00:42:10;;;;;;;;;2.00;2.00;;;;;20.97;36.62;100574.19;5097977;27;45880;-54
2021/11/26 00:44:36;;;;;;;;;2.50;2.50;;;;;20.94;36.71;100566.47;5097661;27;45399;-53
2021/11/26 00:47:01;;;;;;;;;4.75;2.25;;;;;20.93;37.18;100562.16;5097749;27;45298;-52
2021/11/26 00:49:27;;;;;;;;;3.50;2.50;;;;;20.92;36.95;100557.81;5097900;27;45197;-59
2021/11/26 00:51:52;;;;;;;;;3.00;3.00;;;;;20.89;36.76;100562.44;5097562;27;45224;-53
2021/11/26 00:54:18;;;;;;;;;1.75;1.75;;;;;20.87;36.85;100559.91;5097628;27;45242;-51
2021/11/26 00:56:43;;;;;;;;;3.25;3.25;;;;;20.87;36.98;100565.16;5097997;27;45765;-52
2021/11/26 00:59:08;;;;;;;;;2.25;2.25;;;;;20.84;36.56;100552.19;5098041;27;45216;-50
2021/11/26 01:01:34;;;;;;;;;3.00;3.00;;;;;20.83;37.20;100550.47;5078967;27;47010;-54
2021/11/26 01:03:59;;;;;;;;;3.25;2.00;;;;;20.82;37.34;100549.66;5097404;27;45342;-53
2021/11/26 01:06:25;;;;;;;;;2.00;2.00;;;;;20.79;37.33;100552.47;5097408;27;45461;-52
2021/11/26 01:08:50;;;;;;;;;2.00;2.00;;;;;20.79;37.06;100548.97;5097570;27;45590;-51
2021/11/26 01:11:16;;;;;;;;;2.00;2.00;;;;;20.76;37.17;100547.38;5097202;27;45394;-57
2021/11/26 01:13:41;;;;;;;;;5.50;2.25;;;;;20.75;36.80;100539.56;5096885;27;45357;-54
2021/11/26 01:16:07;;;;;;;;;3.50;2.75;;;;;20.74;37.17;100545.75;5097199;27;45818;-52
2021/11/26 01:18:32;;;;;;;;;2.50;2.50;;;;;20.73;37.03;100544.06;5097481;27;45331;-61
2021/11/26 01:20:58;;;;;;;;;2.00;2.00;;;;;20.71;36.64;100541.53;5097154;27;46490;-60
2021/11/26 01:23:25;;;;;;;;;1.00;1.00;;;;;20.68;36.62;100545.16;5097265;27;45303;-52
2021/11/26 01:25:51;;;;;;;;;2.00;2.00;;;;;20.66;37.21;100531.28;5097245;27;45289;-59
2021/11/26 01:28:16;;;;;;;;;3.75;2.25;;;;;20.67;37.02;100530.31;5079078;27;45304;-50
2021/11/26 01:30:46;;;;;;;;;3.25;1.50;;;;;20.67;36.89;100538.19;5097276;27;45250;-58
2021/11/26 01:33:14;;;;;;;;;2.00;2.00;;;;;20.66;36.55;100535.69;5097376;27;45827;-53
2021/11/26 01:35:41;;;;;;;;;4.50;1.50;;;;;20.64;36.44;100533.16;5097554;27;45312;-52
2021/11/26 01:38:09;;;;;;;;;2.00;2.00;;;;;20.63;36.58;100531.44;5097283;27;45240;-53
2021/11/26 01:40:36;;;;;;;;;1.00;1.00;;;;;20.60;36.89;100515.00;5096773;27;46565;-54
2021/11/26 01:43:04;;;;;;;;;4.00;3.00;;;;;20.60;37.07;100515.81;5096902;27;45814;-52
2021/11/26 01:45:29;;;;;;;;;2.50;2.50;;;;;20.59;36.46;100514.13;5097061;27;45472;-52
2021/11/26 01:47:55;;;;;;;;;2.50;2.50;;;;;20.55;36.74;100508.22;5078801;27;45198;-51
2021/11/26 01:50:24;;;;;;;;;1.00;1.00;;;;;20.54;36.97;100505.69;5096611;27;45910;-50
2021/11/26 01:52:51;;;;;;;;;1.75;1.25;;;;;20.55;37.16;100513.47;5096854;27;45859;-53
2021/11/26 01:55:18;;;;;;;;;2.50;2.25;;;;;20.58;36.56;100509.81;5096922;27;45445;-54
2021/11/26 01:57:45;;;;;;;;;3.50;3.00;;;;;20.59;36.88;100506.22;5097365;27;45257;-53
2021/11/26 02:00:13;;;;;;;;;5.25;3.00;;;;;20.60;36.91;100499.19;5096502;27;45686;-54
2021/11/26 02:02:38;;;;;;;;;4.50;3.00;;;;;20.62;36.72;100495.53;5096630;27;45681;-53
2021/11/26 02:05:05;;;;;;;;;3.00;3.00;;;;;20.66;37.02;100494.41;5096816;27;45389;-53
2021/11/26 02:07:30;;;;;;;;;2.00;2.00;;;;;20.69;36.71;100481.03;5096690;27;45394;-51
2021/11/26 02:09:56;;;;;;;;;2.75;2.00;;;;;20.73;36.52;100480.84;5096337;27;46436;-49
2021/11/26 02:12:21;;;;;;;;;2.75;2.75;;;;;20.78;36.36;100481.44;5096604;27;45357;-53
2021/11/26 02:14:46;;;;;;;;;1.50;1.50;;;;;20.82;36.97;100475.03;5096912;27;45358;-55
2021/11/26 02:17:13;;;;;;;;;3.25;3.00;;;;;20.86;36.53;100468.66;5096998;27;45540;-52
2021/11/26 02:19:39;;;;;;;;;3.75;2.75;;;;;20.89;36.26;100463.16;5096425;27;47462;-51
2021/11/26 02:22:04;;;;;;;;;4.00;3.00;;;;;20.92;36.48;100462.16;5096339;27;45444;-55
2021/11/26 02:24:30;;;;;;;;;1.75;1.75;;;;;20.95;36.58;100457.53;5096504;27;45268;-51
2021/11/26 02:26:56;;;;;;;;;2.25;2.25;;;;;21.00;36.43;100463.31;5081160;27;45253;-50
2021/11/26 02:29:21;;;;;;;;;3.25;1.75;;;;;21.03;36.25;100461.44;5099700;27;46317;-56
2021/11/26 02:31:48;;;;;;;;;1.25;1.25;;;;;21.06;36.35;100448.09;5100222;27;45368;-53
2021/11/26 02:34:14;;;;;;;;;3.25;2.75;;;;;21.09;36.08;100447.91;5100405;27;45435;-51
2021/11/26 02:36:39;;;;;;;;;3.50;2.25;;;;;21.11;36.19;100440.75;5100135;27;45552;-53
2021/11/26 02:39:09;;;;;;;;;2.75;2.00;;;;;21.15;36.08;100442.22;5099575;27;46620;-53
2021/11/26 02:41:37;;;;;;;;;2.25;1.25;;;;;21.16;35.95;100439.50;5081933;27;45668;-54
2021/11/26 02:44:03;;;;;;;;;3.75;2.25;;;;;21.16;36.19;100444.78;5099875;27;45220;-56
2021/11/26 02:46:28;;;;;;;;;1.00;1.00;;;;;21.20;36.17;100441.94;5100065;27;45559;-54
2021/11/26 02:48:54;;;;;;;;;3.00;1.50;;;;;21.20;36.07;100436.66;5099379;27;45241;-54
2021/11/26 02:51:19;;;;;;;;;3.00;1.25;;;;;21.21;35.80;100435.72;5099493;27;45230;-54
2021/11/26 02:53:44;;;;;;;;;3.25;2.50;;;;;21.21;35.90;100420.75;5100131;27;45567;-52
2021/11/26 02:56:10;;;;;;;;;2.25;1.25;;;;;21.24;35.80;100417.91;5099824;27;45695;-51
2021/11/26 02:58:35;;;;;;;;;2.00;2.00;;;;;21.20;35.69;100413.81;5099236;27;47639;-51
2021/11/26 03:01:01;;;;;;;;;1.25;1.25;;;;;21.23;35.51;100404.84;5099370;27;45448;-52
2021/11/26 03:03:26;;;;;;;;;2.25;1.00;;;;;21.24;35.80;100407.38;5099648;27;45399;-54
2021/11/26 03:06:10;;;;;;;;;2.00;2.00;;;;;21.25;35.54;100403.78;5099318;27;45551;-53
2021/11/26 03:08:35;;;;;;;;;3.25;2.00;;;;;21.24;35.91;100396.81;5099143;27;46529;-55
2021/11/26 03:11:03;;;;;;;;;2.25;2.25;;;;;21.26;35.47;100397.56;5099294;27;45480;-51
2021/11/26 03:13:29;;;;;;;;;1.00;1.00;;;;;21.25;35.85;100389.78;5099443;27;45346;-52
2021/11/26 03:15:54;;;;;;;;;1.25;1.25;;;;;21.26;35.52;100387.03;5099591;27;45516;-57
2021/11/26 03:18:21;;;;;;;;;2.50;2.50;;;;;21.26;36.00;100386.19;5098890;27;45441;-49
2021/11/26 03:20:49;;;;;;;;;1.25;1.25;;;;;21.27;35.65;100393.16;5099192;27;45681;-54
2021/11/26 03:23:17;;;;;;;;;1.50;0.75;;;;;21.25;35.45;100382.69;5099510;27;45510;-52
2021/11/26 03:25:43;;;;;;;;;2.50;2.00;;;;;21.25;35.63;100382.69;5099331;27;45420;-52
2021/11/26 03:28:10;;;;;;;;;3.00;2.00;;;;;21.25;35.34;100385.34;5099025;27;46560;-50
2021/11/26 03:30:36;;;;;;;;;1.00;1.00;;;;;21.24;35.26;100378.38;5098961;27;45692;-59
2021/11/26 03:33:02;;;;;;;;;2.00;2.00;;;;;21.24;35.33;100373.09;5099156;27;45399;-55
2021/11/26 03:35:27;;;;;;;;;0.75;0.75;;;;;21.23;35.50;100371.41;5099165;27;45428;-57
2021/11/26 03:37:53;;;;;;;;;3.00;1.50;;;;;21.23;35.15;100366.13;5097648;27;46334;-59
2021/11/26 03:40:20;;;;;;;;;2.50;2.50;;;;;21.23;35.70;100360.88;5099317;27;45352;-58
2021/11/26 03:42:46;;;;;;;;;1.75;1.75;;;;;21.18;35.16;100347.16;5099393;27;45755;-55
2021/11/26 03:45:12;;;;;;;;;4.75;2.00;;;;;21.19;35.00;100346.22;5099012;27;45304;-58
2021/11/26 03:47:38;;;;;;;;;3.00;2.00;;;;;21.19;35.14;100338.31;5098796;27;46558;-58
2021/11/26 03:50:05;;;;;;;;;5.00;3.75;;;;;21.16;35.15;100325.34;5098568;27;45508;-55
2021/11/26 03:52:31;;;;;;;;;3.00;2.25;;;;;21.16;35.30;100330.59;5098828;27;45366;-54
2021/11/26 03:54:56;;;;;;;;;2.50;2.00;;;;;21.14;35.29;100335.13;5098979;27;45322;-54
2021/11/26 03:57:22;;;;;;;;;1.00;1.00;;;;;21.14;35.38;100332.50;5098516;27;45236;-51
2021/11/26 03:59:47;;;;;;;;;2.50;0.50;;;;;21.10;34.96;100328.38;5098819;27;45318;-50
2021/11/26 04:02:13;;;;;;;;;2.00;2.00;;;;;21.11;34.99;100330.06;5098522;27;45197;-55
2021/11/26 04:04:38;;;;;;;;;4.00;3.00;;;;;21.09;35.49;100316.97;5098703;27;45256;-57
2021/11/26 04:07:04;;;;;;;;;2.00;2.00;;;;;21.06;35.00;100316.34;5098078;27;46347;-53
2021/11/26 04:09:29;;;;;;;;;3.00;1.75;;;;;21.06;35.11;100314.53;5098311;27;45220;-52
2021/11/26 04:11:55;;;;;;;;;2.00;1.50;;;;;21.05;35.08;100312.03;5098407;27;45446;-55
2021/11/26 04:14:21;;;;;;;;;2.25;2.00;;;;;21.03;35.17;100306.00;5080546;27;45503;-52
2021/11/26 04:16:48;;;;;;;;;2.00;2.00;;;;;21.01;35.15;100303.47;5098130;27;46780;-56
2021/11/26 04:19:13;;;;;;;;;5.75;4.00;;;;;21.00;35.63;100302.63;5098222;27;45241;-53
2021/11/26 04:21:38;;;;;;;;;4.00;2.00;;;;;20.97;35.81;100296.72;5098401;27;45386;-58
2021/11/26 04:24:04;;;;;;;;;2.00;2.00;;;;;20.97;35.50;100292.31;5098407;27;45536;-59
2021/11/26 04:26:30;;;;;;;;;1.75;1.75;;;;;20.95;35.63;100299.47;5098060;27;46480;-62
2021/11/26 04:28:56;;;;;;;;;2.00;2.00;;;;;20.93;35.80;100290.81;5079630;27;46029;-56
2021/11/26 04:31:21;;;;;;;;;3.00;2.00;;;;;20.89;35.79;100288.47;5080163;27;45377;-61
2021/11/26 04:33:47;;;;;;;;;3.25;2.00;;;;;20.85;35.74;100282.56;5080033;27;45629;-58
2021/11/26 04:36:13;;;;;;;;;2.25;2.25;;;;;20.87;35.37;100280.69;5097927;27;46218;-59
2021/11/26 04:38:39;;;;;;;;;1.00;1.00;;;;;20.82;35.71;100272.22;5097962;27;45776;-60
2021/11/26 04:41:04;;;;;;;;;2.00;2.00;;;;;20.84;35.82;100271.16;5098021;27;45591;-62
2021/11/26 04:43:29;;;;;;;;;1.50;1.50;;;;;20.83;35.25;100261.59;5098177;27;45434;-62
2021/11/26 04:45:55;;;;;;;;;2.00;2.00;;;;;20.83;35.24;100255.47;5079159;27;46473;-58
2021/11/26 04:48:21;;;;;;;;;2.50;2.50;;;;;20.81;35.51;100254.72;5097872;27;45308;-61
2021/11/26 04:50:48;;;;;;;;;2.00;2.00;;;;;20.80;35.78;100258.31;5097820;27;45328;-62
2021/11/26 04:53:13;;;;;;;;;2.50;1.50;;;;;20.77;35.52;100263.81;5097768;27;45265;-57
2021/11/26 04:55:39;;;;;;;;;2.00;2.00;;;;;20.74;35.68;100258.69;5097645;27;46403;-59
2021/11/26 04:58:04;;;;;;;;;3.00;2.00;;;;;20.75;35.21;100252.50;5097826;27;46015;-59
2021/11/26 05:00:30;;;;;;;;;2.00;2.00;;;;;20.73;35.60;100260.47;5097619;27;45358;-61
2021/11/26 05:02:56;;;;;;;;;4.00;2.50;;;;;20.70;35.38;100243.09;5097755;27;45581;-55
2021/11/26 05:05:22;;;;;;;;;1.50;1.50;;;;;20.72;35.23;100255.31;5097705;27;46317;-60
2021/11/26 05:07:47;;;;;;;;;3.00;3.00;;;;;20.68;35.78;100247.59;5097368;27;45334;-60
2021/11/26 05:10:14;;;;;;;;;3.50;3.00;;;;;20.67;35.47;100242.44;5097525;27;45277;-56
2021/11/26 05:12:46;;;;;;;;;1.75;1.75;;;;;20.64;35.40;100232.09;5097985;27;45524;-61
2021/11/26 05:15:11;;;;;;;;;2.00;2.00;;;;;20.65;35.76;100232.03;5097278;27;46140;-59
2021/11/26 05:17:37;;;;;;;;;2.75;2.00;;;;;20.64;35.79;100230.34;5097220;27;45299;-59
2021/11/26 05:20:03;;;;;;;;;5.25;2.50;;;;;20.62;35.42;100226.94;5097426;27;45292;-60
2021/11/26 05:22:29;;;;;;;;;3.50;3.00;;;;;20.60;35.19;100223.56;5097538;27;45332;-57
2021/11/26 05:24:54;;;;;;;;;3.50;2.25;;;;;20.58;35.66;100214.91;5097381;27;46092;-59
2021/11/26 05:27:20;;;;;;;;;3.00;2.75;;;;;20.59;35.28;100211.34;5097090;27;45304;-61
2021/11/26 05:29:45;;;;;;;;;3.00;3.00;;;;;20.59;35.74;100210.50;5097078;27;45430;-59
2021/11/26 05:32:11;;;;;;;;;4.00;4.00;;;;;20.56;35.23;100201.00;5097313;27;45347;-52
2021/11/26 05:34:37;;;;;;;;;2.25;2.00;;;;;20.55;35.51;100191.44;5096921;27;47254;-56
2021/11/26 05:37:03;;;;;;;;;5.00;3.00;;;;;20.53;35.59;100186.25;5078522;27;45367;-54
2021/11/26 05:39:28;;;;;;;;;4.00;3.00;;;;;20.51;35.77;100180.25;5097107;27;45318;-51
2021/11/26 05:41:54;;;;;;;;;2.00;2.00;;;;;20.52;35.36;100178.47;5097498;27;45439;-51
2021/11/26 05:44:19;;;;;;;;;2.75;2.75;;;;;20.51;35.33;100174.16;5096821;27;45333;-52
2021/11/26 05:46:44;;;;;;;;;4.00;2.75;;;;;20.50;35.11;100172.47;5096898;27;45415;-50
2021/11/26 05:49:10;;;;;;;;;4.75;3.00;;;;;20.48;35.22;100171.72;5096931;27;45193;-50
2021/11/26 05:51:35;;;;;;;;;4.00;4.00;;;;;20.45;35.20;100164.03;5097143;27;45298;-51
2021/11/26 05:54:01;;;;;;;;;4.00;4.00;;;;;20.45;35.67;100156.97;5096793;27;45286;-54
2021/11/26 05:56:26;;;;;;;;;3.00;3.00;;;;;20.45;35.19;100158.78;5096959;27;45240;-55
2021/11/26 05:58:51;;;;;;;;;3.25;2.00;;;;;20.44;35.35;100154.47;5096887;27;45312;-55
2021/11/26 06:01:17;;;;;;;;;4.00;3.00;;;;;20.45;35.69;100156.16;5098990;27;45533;-59
2021/11/26 06:03:42;;;;;;;;;4.00;4.00;;;;;20.43;35.38;100142.25;5100252;27;46352;-57
2021/11/26 06:06:08;;;;;;;;;6.00;3.75;;;;;20.44;35.30;100151.81;5100216;27;45804;-58
2021/11/26 06:08:33;;;;;;;;;4.00;3.00;;;;;20.47;35.84;100138.44;5100374;27;45205;-53
2021/11/26 06:10:58;;;;;;;;;3.50;3.00;;;;;20.48;35.44;100133.09;5100489;27;45550;-49
2021/11/26 06:13:24;;;;;;;;;4.00;4.00;;;;;20.50;35.20;100130.34;5100396;27;45322;-54
2021/11/26 06:15:49;;;;;;;;;3.25;3.25;;;;;20.55;35.71;100130.91;5100083;27;45236;-58
2021/11/26 06:18:15;;;;;;;;;3.25;3.25;;;;;20.59;35.14;100128.91;5100271;27;45506;-52
2021/11/26 06:20:40;;;;;;;;;5.75;3.50;;;;;20.62;35.21;100129.53;5100307;27;45530;-51
2021/11/26 06:23:05;;;;;;;;;1.50;1.50;;;;;20.67;35.56;100127.41;5099836;27;46703;-57
2021/11/26 06:25:31;;;;;;;;;3.00;2.75;;;;;20.69;35.05;100122.91;5099897;27;45364;-52
2021/11/26 06:27:56;;;;;;;;;2.75;2.75;;;;;20.78;35.50;100123.28;5100372;27;45940;-51
2021/11/26 06:30:24;;;;;;;;;3.00;3.00;;;;;20.82;35.12;100114.19;5100172;27;45436;-55
2021/11/26 06:32:50;;;;;;;;;2.25;1.75;;;;;20.87;34.89;100106.84;5081493;27;47234;-56
2021/11/26 06:35:20;;;;;;;;;4.00;2.50;;;;;20.91;34.75;100096.94;5099716;27;45239;-55
2021/11/26 06:37:45;;;;;;;;;3.00;2.00;;;;;20.93;35.29;100098.50;5099854;27;45401;-53
2021/11/26 06:40:11;;;;;;;;;3.00;3.00;;;;;20.98;35.03;100098.19;5099894;27;45551;-55
2021/11/26 06:42:37;;;;;;;;;2.50;2.50;;;;;21.01;35.22;100090.09;5099523;27;45868;-54
2021/11/26 06:45:04;;;;;;;;;3.50;3.50;;;;;21.03;34.82;100089.97;5099711;27;45421;-52
2021/11/26 06:47:30;;;;;;;;;4.50;2.25;;;;;21.05;34.86;100081.03;5099743;27;45373;-50
2021/11/26 06:49:56;;;;;;;;;3.00;3.00;;;;;21.07;34.65;100079.09;5100186;27;45547;-54
2021/11/26 06:52:21;;;;;;;;;3.00;3.00;;;;;21.09;34.84;100069.31;5099525;27;46272;-55
2021/11/26 06:54:47;;;;;;;;;2.75;2.00;;;;;21.11;34.65;100061.31;5081051;27;45434;-57
2021/11/26 06:57:12;;;;;;;;;3.00;3.00;;;;;21.12;34.82;100055.06;5099587;27;45405;-60
2021/11/26 06:59:38;;;;;;;;;3.00;2.25;;;;;21.13;34.86;100051.47;5099837;27;45388;-61
2021/11/26 07:02:03;;;;;;;;;3.00;1.75;;;;;21.11;34.40;100041.06;5099326;27;46299;-53
2021/11/26 07:04:29;;;;;;;;;3.50;3.00;;;;;21.15;34.94;100046.94;5099721;27;45339;-54
2021/11/26 07:06:54;;;;;;;;;4.00;3.00;;;;;21.16;34.75;100038.97;5099329;27;45286;-53
2021/11/26 07:09:20;;;;;;;;;3.00;3.00;;;;;21.17;34.88;100037.16;5099684;27;45542;-54
2021/11/26 07:11:45;;;;;;;;;5.00;2.25;;;;;21.17;34.45;100037.97;5099105;27;46444;-51
2021/11/26 07:14:11;;;;;;;;;2.25;2.25;;;;;21.17;34.25;100027.44;5098023;27;45938;-55
2021/11/26 07:16:36;;;;;;;;;4.00;4.00;;;;;21.20;34.58;100030.81;5099362;27;45452;-49
2021/11/26 07:19:03;;;;;;;;;4.00;2.00;;;;;21.16;34.35;100023.16;5099403;27;45541;-52
2021/11/26 07:21:29;;;;;;;;;3.00;3.00;;;;;21.19;34.70;100016.81;5098526;27;45357;-51
2021/11/26 07:23:55;;;;;;;;;3.75;3.75;;;;;21.19;34.24;100016.81;5099215;27;45362;-50
2021/11/26 07:26:21;;;;;;;;;2.25;2.25;;;;;21.21;34.56;100014.91;5080729;27;45398;-59
2021/11/26 07:28:47;;;;;;;;;3.25;2.25;;;;;21.19;34.15;100014.19;5099354;27;45488;-59
2021/11/26 07:31:13;;;;;;;;;4.50;3.50;;;;;21.19;34.36;100001.00;5098945;27;46670;-57
2021/11/26 07:33:38;;;;;;;;;4.00;2.00;;;;;21.21;33.94;99998.25;5098825;27;45242;-58
2021/11/26 07:36:06;;;;;;;;;2.75;2.75;;;;;21.20;34.27;99993.94;5098891;27;45227;-53
2021/11/26 07:38:33;;;;;;;;;4.25;2.75;;;;;21.17;34.22;99993.19;5081287;27;45367;-53
2021/11/26 07:40:58;;;;;;;;;3.00;3.00;;;;;21.19;34.15;99982.56;5080579;27;48528;-60
2021/11/26 07:43:24;;;;;;;;;2.00;2.00;;;;;21.19;34.21;99989.59;5098786;27;45415;-54
2021/11/26 07:45:49;;;;;;;;;3.00;3.00;;;;;21.16;34.44;99975.72;5098862;27;45356;-55
2021/11/26 07:48:15;;;;;;;;;5.00;3.00;;;;;21.16;33.89;99980.13;5099052;27;45438;-51
2021/11/26 07:50:40;;;;;;;;;2.00;2.00;;;;;21.15;34.08;99976.66;5098522;27;45426;-58
2021/11/26 07:53:06;;;;;;;;;3.00;2.50;;;;;21.15;34.32;99978.44;5098472;27;45236;-53
2021/11/26 07:55:31;;;;;;;;;2.00;2.00;;;;;21.12;34.38;99976.88;5099018;27;45408;-53
2021/11/26 07:57:57;;;;;;;;;2.75;2.75;;;;;21.12;34.46;99981.28;5098850;27;45343;-53
2021/11/26 08:00:22;;;;;;;;;4.25;3.00;;;;;21.09;34.27;99982.34;5098319;27;47029;-57
2021/11/26 08:02:48;;;;;;;;;4.00;2.25;;;;;21.09;34.08;99978.91;5080054;27;45757;-57
2021/11/26 08:05:15;;;;;;;;;3.00;3.00;;;;;21.08;34.33;99974.56;5098464;27;45397;-60
2021/11/26 08:07:40;;;;;;;;;2.50;2.25;;;;;21.06;34.21;99955.41;5098683;27;45667;-62
2021/11/26 08:10:09;;;;;;;;;4.75;2.00;;;;;21.05;33.97;99957.19;5098065;27;45995;-60
2021/11/26 08:12:36;;;;;;;;;4.00;3.00;;;;;21.02;34.18;99941.59;5098297;27;45949;-53
2021/11/26 08:15:04;;;;;;;;;4.25;3.00;;;;;21.03;34.02;99942.44;5080352;27;45391;-58
2021/11/26 08:17:30;;;;;;;;;4.00;2.00;;;;;21.00;34.30;99931.16;5098887;27;45317;-63
2021/11/26 08:19:55;;;;;;;;;2.75;2.00;;;;;20.99;34.23;99920.75;5098081;27;46266;-60
2021/11/26 08:22:21;;;;;;;;;3.00;3.00;;;;;20.95;34.31;99921.91;5079658;27;46105;-60
2021/11/26 08:24:46;;;;;;;;;2.75;2.75;;;;;20.94;34.32;99923.72;5097769;27;45277;-62
2021/11/26 08:27:12;;;;;;;;;2.00;2.00;;;;;20.93;34.46;99922.03;5098180;27;45430;-60
2021/11/26 08:29:37;;;;;;;;;4.00;2.25;;;;;20.92;34.53;99924.78;5079426;27;47087;-60
2021/11/26 08:32:03;;;;;;;;;3.00;2.00;;;;;20.89;34.57;99925.00;5098262;27;45333;-53
2021/11/26 08:34:31;;;;;;;;;3.00;3.00;;;;;20.88;34.15;99924.16;5098188;27;45311;-61
2021/11/26 08:36:56;;;;;;;;;4.00;2.00;;;;;20.87;34.55;99921.63;5098176;27;45257;-59
2021/11/26 08:39:23;;;;;;;;;3.25;3.25;;;;;20.84;34.46;99907.72;5079484;27;46880;-57
2021/11/26 08:41:48;;;;;;;;;2.75;2.75;;;;;20.81;34.25;99907.09;5097786;27;45201;-55
2021/11/26 08:44:14;;;;;;;;;3.75;3.00;;;;;20.82;34.29;99914.03;5079615;27;45277;-56
2021/11/26 08:46:39;;;;;;;;;3.00;3.00;;;;;20.81;34.74;99907.09;5097934;27;45307;-59
2021/11/26 08:49:05;;;;;;;;;3.00;2.25;;;;;20.80;34.60;99906.25;5097860;27;47086;-61
2021/11/26 08:51:35;;;;;;;;;4.00;3.00;;;;;20.79;34.32;99903.72;5097694;27;45484;-55
2021/11/26 08:54:02;;;;;;;;;3.50;2.00;;;;;20.78;34.42;99902.06;5097628;27;45338;-56
2021/11/26 08:56:27;;;;;;;;;2.25;2.25;;;;;20.76;34.74;99906.59;5098023;27;45246;-55
2021/11/26 08:58:52;;;;;;;;;3.00;3.00;;;;;20.75;34.57;99902.28;5097442;27;46194;-55
2021/11/26 09:01:18;;;;;;;;;3.50;3.00;;;;;20.73;34.52;99896.25;5079118;27;45438;-52
2021/11/26 09:03:46;;;;;;;;;3.00;3.00;;;;;20.72;34.69;99894.56;5097704;27;45332;-52
2021/11/26 09:06:14;;;;;;;;;5.00;3.00;;;;;20.69;34.37;99893.81;5097643;27;45430;-52
2021/11/26 09:08:39;;;;;;;;;3.25;3.00;;;;;20.67;34.44;99882.53;5097503;27;46432;-58
2021/11/26 09:11:05;;;;;;;;;3.25;3.00;;;;;20.63;34.39;99878.47;5097545;27;45515;-51
2021/11/26 09:13:30;;;;;;;;;3.00;2.00;;;;;20.64;34.73;99871.41;5097711;27;45313;-53
2021/11/26 09:15:55;;;;;;;;;2.25;2.25;;;;;20.65;34.99;99870.44;5096319;27;45349;-50
2021/11/26 09:18:22;;;;;;;;;3.25;3.00;;;;;20.62;34.72;99866.25;5097170;27;46310;-54
2021/11/26 09:20:50;;;;;;;;;3.75;3.00;;;;;20.61;34.59;99854.03;5097137;27;45830;-55
2021/11/26 09:23:18;;;;;;;;;3.00;3.00;;;;;20.60;34.83;99847.09;5097400;27;45350;-53
2021/11/26 09:25:44;;;;;;;;;2.00;2.00;;;;;20.60;34.33;99841.00;5097472;27;45543;-52
2021/11/26 09:28:10;;;;;;;;;2.00;2.00;;;;;20.59;34.55;99834.88;5097055;27;45655;-55
2021/11/26 09:30:36;;;;;;;;;2.50;2.00;;;;;20.57;34.71;99831.50;5079015;27;45861;-53
2021/11/26 09:33:01;;;;;;;;;2.25;2.25;;;;;20.52;34.91;99807.31;5097072;27;45291;-55
2021/11/26 09:35:27;;;;;;;;;2.00;2.00;;;;;20.54;34.37;99821.22;5096077;27;45564;-51
2021/11/26 09:37:53;;;;;;;;;3.00;3.00;;;;;20.54;34.93;99819.41;5096900;27;46477;-55
2021/11/26 09:40:19;;;;;;;;;2.25;1.25;;;;;20.53;34.71;99816.91;5078545;27;46033;-49
2021/11/26 09:42:45;;;;;;;;;2.00;2.00;;;;;20.51;34.88;99808.25;5097106;27;45311;-54
2021/11/26 09:45:22;;;;;;;;;6.25;2.00;;;;;20.51;34.48;99800.38;5097177;27;45643;-53
2021/11/26 09:47:49;;;;;;;;;2.00;2.00;;;;;20.50;34.91;99793.41;5096886;27;46193;-56
2021/11/26 09:50:15;;;;;;;;;2.00;2.00;;;;;20.49;34.74;99794.38;5096753;27;45339;-55
2021/11/26 09:52:42;;;;;;;;;4.75;3.50;;;;;20.47;34.29;99777.84;5097038;27;45233;-51
2021/11/26 09:55:09;;;;;;;;;4.00;3.00;;;;;20.46;34.07;99789.31;5097541;27;45182;-51
2021/11/26 09:57:34;;;;;;;;;3.50;2.00;;;;;20.44;34.03;99776.28;5097040;27;45324;-52
2021/11/26 10:00:00;;;;;;;;;3.25;3.25;;;;;20.40;32.58;99761.63;5096868;27;45367;-56
2021/11/26 10:02:25;;;;;;;;;3.50;3.50;;;;;20.28;31.44;99758.13;5096832;27;45501;-56
2021/11/26 10:05:08;;;;;;;;;7.00;4.50;;;;;20.13;31.72;99761.81;5096895;27;45482;-54
2021/11/26 10:07:46;;;;;;;;;5.00;4.00;;;;;20.00;32.37;99754.81;5096170;27;45299;-51
2021/11/26 10:10:13;;;;;;;;;4.00;2.25;;;;;19.96;32.94;99748.09;5096372;27;45926;-50
2021/11/26 10:12:40;;;;;;;;;5.25;4.00;;;;;19.96;32.79;99747.22;5097094;27;45410;-49
2021/11/26 10:15:07;;;;;;;;;5.00;4.00;;;;;19.97;33.04;99739.25;5079020;27;45304;-53
2021/11/26 10:17:32;;;;;;;;;4.00;2.75;;;;;19.97;33.18;99736.63;5096437;27;47433;-50
2021/11/26 10:20:07;;;;;;;;;3.75;3.00;;;;;19.98;33.43;99730.41;5096444;27;45300;-54
2021/11/26 10:22:38;;;;;;;;;5.00;1.75;;;;;20.01;33.06;99716.19;5096547;27;45241;-51
2021/11/26 10:25:09;;;;;;;;;2.00;2.00;;;;;20.02;33.42;99700.28;5096697;27;45437;-51
2021/11/26 10:27:48;;;;;;;;;4.25;4.00;;;;;20.02;33.35;99695.03;5096166;27;46294;-52
2021/11/26 10:30:25;;;;;;;;;4.00;2.25;;;;;20.02;33.46;99673.16;5095771;27;45347;-47
2021/11/26 10:32:58;;;;;;;;;3.25;3.25;;;;;20.03;33.06;99680.94;5096365;27;45283;-54
2021/11/26 10:35:30;;;;;;;;;4.50;3.00;;;;;20.03;33.15;99659.06;5096703;27;45368;-49
2021/11/26 10:38:03;;;;;;;;;3.00;3.00;;;;;20.03;33.34;99651.19;5096294;27;45932;-52
2021/11/26 10:40:32;;;;;;;;;2.00;2.00;;;;;20.00;33.00;99647.00;5096137;27;45661;-57
2021/11/26 10:42:58;;;;;;;;;3.00;2.50;;;;;20.01;33.17;99646.00;5096485;27;45409;-57
2021/11/26 10:59:31;;;;;;;;;1.00;1.00;;;;;20.01;33.43;99619.72;5099597;27;45481;-53
2021/11/26 11:01:58;;;;;;;;;3.50;2.50;;;;;20.01;32.99;99609.19;5081001;27;45228;-51
2021/11/26 11:04:26;;;;;;;;;2.75;2.75;;;;;20.00;32.88;99598.78;5099648;27;45309;-50
2021/11/26 11:07:02;;;;;;;;;2.50;2.50;;;;;19.96;32.98;99587.66;5099508;27;45429;-53
2021/11/26 11:09:56;;;;;;;;;2.25;2.00;;;;;19.98;32.71;99592.81;5098465;27;45614;-48
2021/11/26 11:12:34;;;;;;;;;2.25;1.25;;;;;19.97;33.13;99581.44;5070359;28;45893;-51
2021/11/26 11:15:02;;;;;;;;;2.25;2.25;;;;;19.96;32.90;99576.28;5098013;27;45444;-53
2021/11/26 11:17:28;;;;;;;;;2.00;0.75;;;;;19.94;33.28;99560.63;5099247;27;45202;-51
2021/11/26 11:19:57;;;;;;;;;3.00;3.00;;;;;19.94;32.83;99560.63;5098266;27;45400;-51
2021/11/26 11:22:23;;;;;;;;;2.00;2.00;;;;;19.92;32.90;99538.88;5099143;27;45369;-55
2021/11/26 11:24:49;;;;;;;;;2.25;2.00;;;;;19.92;33.11;99528.34;5099575;27;45347;-51
2021/11/26 11:27:15;;;;;;;;;2.75;2.00;;;;;19.93;33.42;99515.09;5099146;27;45533;-56
2021/11/26 11:29:42;;;;;;;;;2.00;2.00;;;;;19.93;33.29;99506.34;5099451;27;45357;-60
2021/11/26 11:32:09;;;;;;;;;3.00;2.00;;;;;19.93;33.26;99501.09;5099099;27;45842;-59
2021/11/26 11:34:36;;;;;;;;;1.75;1.75;;;;;19.93;32.88;99495.84;5080857;27;45459;-57
2021/11/26 11:37:03;;;;;;;;;2.00;2.00;;;;;19.87;33.39;99478.72;5099333;27;45375;-59
2021/11/26 11:39:28;;;;;;;;;2.75;2.75;;;;;19.91;33.13;99480.19;5099032;27;46183;-55